createdAt,value
2022-08-19T00:00:08.433Z,51.7330
2022-08-19T00:00:19.636Z,51.7330
2022-08-19T00:00:30.862Z,51.7390
2022-08-19T00:00:42.033Z,51.7520
2022-08-19T00:00:53.233Z,51.7150
2022-08-19T00:01:04.439Z,51.6980
2022-08-19T00:01:15.482Z,51.6860
2022-08-19T00:01:32.592Z,51.9270
2022-08-19T00:01:53.445Z,51.9990
2022-08-19T00:02:04.962Z,51.9960
2022-08-19T00:02:16.113Z,51.7860
2022-08-19T00:02:27.312Z,51.7170
2022-08-19T00:02:38.512Z,51.7080
2022-08-19T00:02:55.743Z,51.9740
2022-08-19T00:03:07.044Z,51.8810
2022-08-19T00:03:18.191Z,51.7680
2022-08-19T00:03:29.244Z,51.7390
2022-08-19T00:03:40.323Z,51.6940
2022-08-19T00:03:51.383Z,51.6690
2022-08-19T00:04:02.465Z,51.6760
2022-08-19T00:04:13.556Z,51.6820
2022-08-19T00:04:24.774Z,51.6860
2022-08-19T00:04:36.037Z,51.6700
2022-08-19T00:04:47.187Z,51.7090
2022-08-19T00:04:58.409Z,51.6970
2022-08-19T00:05:09.434Z,51.7230
2022-08-19T00:05:20.502Z,51.7230
2022-08-19T00:05:31.633Z,51.7050
2022-08-19T00:05:42.693Z,51.7150
2022-08-19T00:05:53.742Z,51.7170
2022-08-19T00:06:04.803Z,51.7270
2022-08-19T00:06:15.864Z,51.7230
2022-08-19T00:06:29.912Z,51.9160
2022-08-19T00:06:41.072Z,51.8280
2022-08-19T00:06:52.272Z,51.8030
2022-08-19T00:07:03.482Z,51.7970
2022-08-19T00:07:14.673Z,51.7580
2022-08-19T00:07:25.881Z,51.7870
2022-08-19T00:07:36.913Z,51.7990
2022-08-19T00:07:47.978Z,51.7990
2022-08-19T00:07:59.153Z,51.8130
2022-08-19T00:08:10.192Z,51.8260
2022-08-19T00:08:21.233Z,51.8260
2022-08-19T00:08:32.433Z,51.8260
2022-08-19T00:08:43.632Z,51.8440
2022-08-19T00:08:54.704Z,51.8530
2022-08-19T00:09:05.770Z,51.8980
2022-08-19T00:09:16.913Z,51.9320
2022-08-19T00:09:28.113Z,51.9630
2022-08-19T00:09:39.314Z,51.9900
2022-08-19T00:09:50.399Z,52.0200
2022-08-19T00:10:01.463Z,52.0270
2022-08-19T00:10:12.562Z,52.0270
2022-08-19T00:10:23.622Z,52.0200
2022-08-19T00:10:34.674Z,52.0200
2022-08-19T00:10:45.878Z,52.0330
2022-08-19T00:10:56.947Z,52.0520
2022-08-19T00:11:08.143Z,52.0080
2022-08-19T00:11:25.474Z,52.2800
2022-08-19T00:11:37.312Z,52.2140
2022-08-19T00:11:48.372Z,52.1250
2022-08-19T00:11:59.472Z,52.0780
2022-08-19T00:12:10.543Z,52.0580
2022-08-19T00:12:21.593Z,52.0330
2022-08-19T00:12:32.632Z,52.0270
2022-08-19T00:12:46.956Z,52.0140
2022-08-19T00:13:00.794Z,52.2610
2022-08-19T00:13:11.985Z,52.1340
2022-08-19T00:13:23.183Z,52.0520
2022-08-19T00:13:34.222Z,52.0200
2022-08-19T00:13:45.273Z,52.0140
2022-08-19T00:13:56.544Z,52.0270
2022-08-19T00:14:07.619Z,52.0270
2022-08-19T00:14:18.822Z,52.0140
2022-08-19T00:14:29.902Z,52.0270
2022-08-19T00:14:40.954Z,52.0140
2022-08-19T00:14:52.183Z,51.9750
2022-08-19T00:15:03.262Z,51.9750
2022-08-19T00:15:14.314Z,51.9690
2022-08-19T00:15:25.422Z,51.9630
2022-08-19T00:15:36.625Z,51.9500
2022-08-19T00:15:47.823Z,51.9500
2022-08-19T00:15:59.024Z,51.9200
2022-08-19T00:16:10.222Z,51.9320
2022-08-19T00:16:25.242Z,51.9140
2022-08-19T00:16:38.383Z,52.1790
2022-08-19T00:16:49.448Z,52.0550
2022-08-19T00:17:00.513Z,51.9500
2022-08-19T00:17:11.663Z,51.9050
2022-08-19T00:17:22.703Z,51.8870
2022-08-19T00:17:33.752Z,51.8750
2022-08-19T00:17:44.944Z,51.8690
2022-08-19T00:17:56.012Z,51.8630
2022-08-19T00:18:07.063Z,51.8750
2022-08-19T00:18:18.153Z,51.8810
2022-08-19T00:18:29.233Z,51.9020
2022-08-19T00:18:40.303Z,51.9140
2022-08-19T00:18:51.503Z,51.9050
2022-08-19T00:19:02.542Z,51.9320
2022-08-19T00:19:13.600Z,51.8990
2022-08-19T00:19:24.783Z,51.8810
2022-08-19T00:19:35.996Z,51.8870
2022-08-19T00:19:47.023Z,51.8680
2022-08-19T00:19:58.102Z,51.8440
2022-08-19T00:20:09.262Z,51.8630
2022-08-19T00:20:20.302Z,51.8690
2022-08-19T00:20:31.342Z,51.8560
2022-08-19T00:20:42.571Z,51.8560
2022-08-19T00:20:53.743Z,51.8560
2022-08-19T00:21:04.829Z,51.8440
2022-08-19T00:21:15.915Z,51.8170
2022-08-19T00:21:27.023Z,51.8250
2022-08-19T00:21:38.223Z,51.8170
2022-08-19T00:21:49.423Z,51.8380
2022-08-19T00:22:00.468Z,51.8690
2022-08-19T00:22:11.531Z,51.8500
2022-08-19T00:22:22.633Z,51.8500
2022-08-19T00:22:33.673Z,51.8560
2022-08-19T00:22:44.783Z,51.8380
2022-08-19T00:22:55.982Z,51.8440
2022-08-19T00:23:07.033Z,51.8690
2022-08-19T00:23:18.103Z,51.8940
2022-08-19T00:23:29.263Z,51.8940
2022-08-19T00:23:40.302Z,51.9200
2022-08-19T00:23:51.344Z,51.9260
2022-08-19T00:24:02.542Z,51.9570
2022-08-19T00:24:13.613Z,51.9960
2022-08-19T00:24:24.676Z,51.9960
2022-08-19T00:24:35.823Z,52.0020
2022-08-19T00:24:50.875Z,51.9810
2022-08-19T00:25:02.387Z,52.2040
2022-08-19T00:25:13.589Z,52.0860
2022-08-19T00:25:29.953Z,52.1950
2022-08-19T00:25:41.784Z,52.2850
2022-08-19T00:25:53.291Z,52.1630
2022-08-19T00:26:04.342Z,52.0920
2022-08-19T00:26:15.572Z,52.1130
2022-08-19T00:26:26.662Z,52.1380
2022-08-19T00:26:37.748Z,52.1760
2022-08-19T00:26:48.792Z,52.1940
2022-08-19T00:27:24.895Z,52.2080
2022-08-19T00:27:26.532Z,52.4910
2022-08-19T00:27:33.743Z,52.5980
2022-08-19T00:27:44.793Z,52.4390
2022-08-19T00:27:55.853Z,52.3220
2022-08-19T00:28:06.912Z,52.2760
2022-08-19T00:28:17.983Z,52.2740
2022-08-19T00:28:29.102Z,52.2870
2022-08-19T00:28:40.172Z,52.2930
2022-08-19T00:28:51.234Z,52.2820
2022-08-19T00:29:02.274Z,52.2930
2022-08-19T00:29:13.312Z,52.2740
2022-08-19T00:29:24.453Z,52.2680
2022-08-19T00:29:35.662Z,52.2770
2022-08-19T00:29:46.871Z,52.2910
2022-08-19T00:30:03.871Z,52.5650
2022-08-19T00:30:15.023Z,52.4510
2022-08-19T00:30:26.222Z,52.3460
2022-08-19T00:30:37.423Z,52.2930
2022-08-19T00:30:48.484Z,52.2580
2022-08-19T00:30:59.503Z,52.2460
2022-08-19T00:31:11.066Z,52.2630
2022-08-19T00:31:22.223Z,52.2390
2022-08-19T00:31:33.430Z,52.2320
2022-08-19T00:31:44.625Z,52.2080
2022-08-19T00:31:55.826Z,52.1870
2022-08-19T00:32:06.874Z,52.1910
2022-08-19T00:32:21.871Z,52.3850
2022-08-19T00:32:32.943Z,52.2320
2022-08-19T00:32:45.150Z,52.2510
2022-08-19T00:32:56.224Z,52.1500
2022-08-19T00:33:07.282Z,52.1150
2022-08-19T00:33:18.383Z,52.0970
2022-08-19T00:33:29.462Z,52.0970
2022-08-19T00:33:41.824Z,52.1480
2022-08-19T00:33:52.944Z,52.0910
2022-08-19T00:34:03.993Z,52.0780
2022-08-19T00:34:15.033Z,52.0780
2022-08-19T00:34:26.223Z,52.0640
2022-08-19T00:34:37.284Z,52.0520
2022-08-19T00:34:48.349Z,52.0450
2022-08-19T00:34:59.512Z,52.0330
2022-08-19T00:35:10.612Z,52.0460
2022-08-19T00:35:21.722Z,52.0660
2022-08-19T00:35:32.782Z,52.0640
2022-08-19T00:35:43.833Z,52.0640
2022-08-19T00:35:56.258Z,52.0720
2022-08-19T00:36:07.430Z,52.1540
2022-08-19T00:36:18.473Z,52.0920
2022-08-19T00:36:29.516Z,52.0740
2022-08-19T00:36:40.622Z,52.0550
2022-08-19T00:36:51.832Z,52.0550
2022-08-19T00:37:03.024Z,52.0550
2022-08-19T00:37:14.062Z,52.0680
2022-08-19T00:37:25.110Z,52.0370
2022-08-19T00:37:36.332Z,52.0490
2022-08-19T00:37:47.504Z,52.0680
2022-08-19T00:37:58.703Z,52.0990
2022-08-19T00:38:09.917Z,52.1340
2022-08-19T00:38:34.962Z,52.1440
2022-08-19T00:38:38.376Z,52.4160
2022-08-19T00:38:49.642Z,52.3440
2022-08-19T00:39:00.788Z,52.2290
2022-08-19T00:39:11.982Z,52.2060
2022-08-19T00:39:23.072Z,52.1870
2022-08-19T00:39:34.207Z,52.1630
2022-08-19T00:39:45.313Z,52.1560
2022-08-19T00:40:00.419Z,52.4200
2022-08-19T00:40:11.587Z,52.2940
2022-08-19T00:40:22.742Z,52.2700
2022-08-19T00:40:33.802Z,52.2630
2022-08-19T00:40:44.902Z,52.2740
2022-08-19T00:40:56.112Z,52.2610
2022-08-19T00:41:07.181Z,52.2860
2022-08-19T00:41:18.246Z,52.2740
2022-08-19T00:41:29.401Z,52.2740
2022-08-19T00:41:40.457Z,52.2740
2022-08-19T00:41:51.506Z,52.2580
2022-08-19T00:42:02.565Z,52.2510
2022-08-19T00:42:15.670Z,52.2200
2022-08-19T00:42:27.026Z,52.3650
2022-08-19T00:42:38.193Z,52.2740
2022-08-19T00:42:49.407Z,52.2820
2022-08-19T00:43:00.606Z,52.3280
2022-08-19T00:43:11.803Z,52.3440
2022-08-19T00:43:22.861Z,52.3440
2022-08-19T00:43:33.922Z,52.3460
2022-08-19T00:43:44.972Z,52.3530
2022-08-19T00:43:56.041Z,52.3530
2022-08-19T00:44:07.099Z,52.3400
2022-08-19T00:44:18.163Z,52.3710
2022-08-19T00:44:29.242Z,52.3790
2022-08-19T00:44:40.314Z,52.3530
2022-08-19T00:44:51.379Z,52.3710
2022-08-19T00:45:02.524Z,52.3460
2022-08-19T00:45:13.761Z,52.3460
2022-08-19T00:45:24.811Z,52.3790
2022-08-19T00:45:36.647Z,52.4060
2022-08-19T00:45:48.012Z,52.4580
2022-08-19T00:45:59.176Z,52.4390
2022-08-19T00:46:10.226Z,52.4510
2022-08-19T00:46:21.266Z,52.4390
2022-08-19T00:46:32.457Z,52.4640
2022-08-19T00:46:43.645Z,52.5090
2022-08-19T00:46:58.012Z,52.5280
2022-08-19T00:47:11.020Z,52.7530
2022-08-19T00:47:26.585Z,52.8330
2022-08-19T00:47:38.706Z,52.7630
2022-08-19T00:47:49.761Z,52.6350
2022-08-19T00:48:00.829Z,52.5870
2022-08-19T00:48:14.812Z,52.5560
2022-08-19T00:48:26.385Z,52.7400
2022-08-19T00:48:37.594Z,52.6180
2022-08-19T00:48:48.641Z,52.5870
2022-08-19T00:48:59.711Z,52.5750
2022-08-19T00:49:10.782Z,52.5620
2022-08-19T00:49:21.832Z,52.5440
2022-08-19T00:49:32.882Z,52.5300
2022-08-19T00:49:43.955Z,52.5170
2022-08-19T00:49:55.018Z,52.5300
2022-08-19T00:50:06.201Z,52.5050
2022-08-19T00:50:17.453Z,52.5170
2022-08-19T00:50:28.502Z,52.4920
2022-08-19T00:50:39.561Z,52.4920
2022-08-19T00:50:56.618Z,52.7500
2022-08-19T00:51:07.681Z,52.6240
2022-08-19T00:51:18.762Z,52.5460
2022-08-19T00:51:29.826Z,52.5090
2022-08-19T00:51:40.872Z,52.5090
2022-08-19T00:51:51.948Z,52.4940
2022-08-19T00:52:03.001Z,52.4880
2022-08-19T00:52:14.206Z,52.4940
2022-08-19T00:52:25.406Z,52.5050
2022-08-19T00:52:36.445Z,52.5050
2022-08-19T00:52:47.555Z,52.4800
2022-08-19T00:52:58.582Z,52.4470
2022-08-19T00:53:09.615Z,52.4160
2022-08-19T00:53:22.727Z,52.5360
2022-08-19T00:53:33.762Z,52.4470
2022-08-19T00:53:44.822Z,52.4100
2022-08-19T00:53:55.871Z,52.4000
2022-08-19T00:54:06.946Z,52.4060
2022-08-19T00:54:18.045Z,52.3750
2022-08-19T00:54:31.280Z,52.3500
2022-08-19T00:54:42.387Z,52.5210
2022-08-19T00:54:53.566Z,52.4350
2022-08-19T00:55:04.784Z,52.4220
2022-08-19T00:55:15.962Z,52.4160
2022-08-19T00:55:27.049Z,52.4040
2022-08-19T00:55:38.112Z,52.3850
2022-08-19T00:55:49.245Z,52.3770
2022-08-19T00:56:02.501Z,52.4800
2022-08-19T00:56:13.567Z,52.3970
2022-08-19T00:56:24.791Z,52.3640
2022-08-19T00:56:35.858Z,52.3640
2022-08-19T00:56:46.901Z,52.3910
2022-08-19T00:56:58.058Z,52.4040
2022-08-19T00:57:09.241Z,52.3850
2022-08-19T00:57:20.442Z,52.3770
2022-08-19T00:57:31.643Z,52.3710
2022-08-19T00:57:42.843Z,52.4040
2022-08-19T00:57:54.045Z,52.4220
2022-08-19T00:58:05.257Z,52.4160
2022-08-19T00:58:16.436Z,52.4220
2022-08-19T00:58:27.657Z,52.4220
2022-08-19T00:58:38.841Z,52.4100
2022-08-19T00:58:49.898Z,52.3910
2022-08-19T00:59:00.961Z,52.3710
2022-08-19T00:59:12.121Z,52.3630
2022-08-19T00:59:56.446Z,52.6350
2022-08-19T01:00:00.499Z,52.3560
2022-08-19T01:00:02.689Z,52.7710
2022-08-19T01:00:14.220Z,52.8120
2022-08-19T01:00:25.417Z,52.6450
2022-08-19T01:00:36.643Z,52.5560
2022-08-19T01:00:47.692Z,52.5520
2022-08-19T01:00:58.764Z,52.5170
2022-08-19T01:01:09.910Z,52.5110
2022-08-19T01:01:23.426Z,52.6800
2022-08-19T01:01:34.515Z,52.5990
2022-08-19T01:01:45.646Z,52.5480
2022-08-19T01:01:56.736Z,52.5680
2022-08-19T01:02:07.814Z,52.5640
2022-08-19T01:02:19.001Z,52.5520
2022-08-19T01:02:30.208Z,52.5640
2022-08-19T01:02:41.403Z,52.5810
2022-08-19T01:02:52.764Z,52.5930
2022-08-19T01:03:03.883Z,52.6060
2022-08-19T01:03:14.932Z,52.6100
2022-08-19T01:03:25.982Z,52.6450
2022-08-19T01:03:56.491Z,52.6300
2022-08-19T01:03:57.542Z,52.9170
2022-08-19T01:04:09.725Z,53.0100
2022-08-19T01:04:20.924Z,52.8240
2022-08-19T01:04:32.125Z,52.7620
2022-08-19T01:04:43.165Z,52.7410
2022-08-19T01:04:54.214Z,52.7330
2022-08-19T01:05:05.402Z,52.7460
2022-08-19T01:05:16.605Z,52.7520
2022-08-19T01:05:27.808Z,52.7330
2022-08-19T01:05:39.032Z,52.7520
2022-08-19T01:05:50.082Z,52.7890
2022-08-19T01:06:01.142Z,52.7580
2022-08-19T01:06:12.282Z,52.7640
2022-08-19T01:06:23.489Z,52.7520
2022-08-19T01:06:34.690Z,52.7520
2022-08-19T01:06:45.887Z,52.7710
2022-08-19T01:06:57.083Z,52.7640
2022-08-19T01:07:08.130Z,52.7640
2022-08-19T01:07:19.597Z,52.7460
2022-08-19T01:07:35.753Z,52.7830
2022-08-19T01:07:48.006Z,53.0290
2022-08-19T01:07:59.168Z,52.9210
2022-08-19T01:08:10.362Z,52.8240
2022-08-19T01:08:21.565Z,52.7810
2022-08-19T01:08:32.762Z,52.7740
2022-08-19T01:08:43.965Z,52.7680
2022-08-19T01:08:55.012Z,52.7810
2022-08-19T01:09:06.064Z,52.7410
2022-08-19T01:09:17.245Z,52.7350
2022-08-19T01:09:28.442Z,52.7480
2022-08-19T01:09:39.644Z,52.7410
2022-08-19T01:09:50.854Z,52.7350
2022-08-19T01:10:02.048Z,52.7040
2022-08-19T01:10:13.254Z,52.7210
2022-08-19T01:10:24.442Z,52.7210
2022-08-19T01:10:36.927Z,52.7000
2022-08-19T01:10:48.280Z,52.7980
2022-08-19T01:10:59.321Z,52.7070
2022-08-19T01:11:10.362Z,52.6630
2022-08-19T01:11:22.737Z,52.7330
2022-08-19T01:11:33.884Z,52.6860
2022-08-19T01:11:44.921Z,52.6760
2022-08-19T01:11:55.962Z,52.6300
2022-08-19T01:12:07.170Z,52.5990
2022-08-19T01:12:18.362Z,52.5990
2022-08-19T01:12:29.571Z,52.5930
2022-08-19T01:12:40.764Z,52.6050
2022-08-19T01:12:52.011Z,52.6050
2022-08-19T01:13:03.122Z,52.5870
2022-08-19T01:13:14.162Z,52.5810
2022-08-19T01:13:25.246Z,52.5520
2022-08-19T01:13:49.375Z,52.5560
2022-08-19T01:13:53.408Z,52.8160
2022-08-19T01:14:04.606Z,52.7100
2022-08-19T01:14:15.802Z,52.6220
2022-08-19T01:14:27.007Z,52.5950
2022-08-19T01:14:38.204Z,52.5810
2022-08-19T01:14:49.251Z,52.5740
2022-08-19T01:15:00.321Z,52.5930
2022-08-19T01:15:11.488Z,52.5870
2022-08-19T01:15:22.684Z,52.5870
2022-08-19T01:15:33.885Z,52.6090
2022-08-19T01:15:44.933Z,52.6280
2022-08-19T01:15:56.001Z,52.6150
2022-08-19T01:16:07.156Z,52.6220
2022-08-19T01:16:18.370Z,52.6030
2022-08-19T01:16:29.561Z,52.6090
2022-08-19T01:16:40.763Z,52.5950
2022-08-19T01:16:51.964Z,52.5870
2022-08-19T01:17:03.009Z,52.5930
2022-08-19T01:17:14.047Z,52.5480
2022-08-19T01:17:25.100Z,52.5350
2022-08-19T01:17:36.161Z,52.5620
2022-08-19T01:17:47.203Z,52.6120
2022-08-19T01:17:58.261Z,52.6180
2022-08-19T01:18:09.401Z,52.6300
2022-08-19T01:18:20.602Z,52.6570
2022-08-19T01:18:31.808Z,52.6380
2022-08-19T01:18:43.001Z,52.6300
2022-08-19T01:18:54.199Z,52.6240
2022-08-19T01:19:05.403Z,52.6120
2022-08-19T01:19:16.606Z,52.6180
2022-08-19T01:19:27.804Z,52.6510
2022-08-19T01:19:44.087Z,52.6510
2022-08-19T01:19:55.954Z,52.9460
2022-08-19T01:20:07.170Z,52.8180
2022-08-19T01:20:18.363Z,52.7350
2022-08-19T01:20:29.412Z,52.7040
2022-08-19T01:20:40.482Z,52.6980
2022-08-19T01:20:51.551Z,52.6920
2022-08-19T01:21:03.842Z,52.7990
2022-08-19T01:21:15.007Z,52.7540
2022-08-19T01:21:26.048Z,52.7810
2022-08-19T01:21:37.086Z,52.7620
2022-08-19T01:21:48.290Z,52.7480
2022-08-19T01:21:59.484Z,52.7350
2022-08-19T01:22:16.636Z,53.0040
2022-08-19T01:22:33.300Z,52.9290
2022-08-19T01:22:44.926Z,53.0830
2022-08-19T01:22:55.971Z,52.9740
2022-08-19T01:23:07.012Z,52.8830
2022-08-19T01:23:18.206Z,52.8650
2022-08-19T01:23:29.402Z,52.8470
2022-08-19T01:23:40.610Z,52.8280
2022-08-19T01:23:51.809Z,52.8240
2022-08-19T01:24:03.011Z,52.8050
2022-08-19T01:24:14.073Z,52.8040
2022-08-19T01:24:25.131Z,52.7640
2022-08-19T01:24:36.283Z,52.7580
2022-08-19T01:24:53.249Z,53.0460
2022-08-19T01:25:08.851Z,53.0170
2022-08-19T01:25:23.367Z,53.1180
2022-08-19T01:25:37.762Z,53.1280
2022-08-19T01:25:50.572Z,53.0250
2022-08-19T01:26:01.612Z,52.8880
2022-08-19T01:26:12.702Z,52.8120
2022-08-19T01:26:23.832Z,52.7890
2022-08-19T01:26:35.006Z,52.7580
2022-08-19T01:26:48.801Z,52.9050
2022-08-19T01:27:00.049Z,52.7830
2022-08-19T01:27:11.163Z,52.7270
2022-08-19T01:27:22.369Z,52.7400
2022-08-19T01:27:35.382Z,52.7270
2022-08-19T01:27:50.532Z,52.9750
2022-08-19T01:28:10.703Z,52.9830
2022-08-19T01:28:34.223Z,53.0170
2022-08-19T01:28:40.301Z,53.0810
2022-08-19T01:28:53.616Z,53.0580
2022-08-19T01:29:05.209Z,52.8050
2022-08-19T01:29:16.653Z,52.7580
2022-08-19T01:29:27.870Z,52.6880
2022-08-19T01:29:39.372Z,52.6820
2022-08-19T01:29:52.881Z,52.7710
2022-08-19T01:30:03.973Z,52.6630
2022-08-19T01:30:15.177Z,52.6450
2022-08-19T01:30:26.368Z,52.6410
2022-08-19T01:30:37.565Z,52.6350
2022-08-19T01:30:50.922Z,52.6040
2022-08-19T01:31:07.917Z,52.7640
2022-08-19T01:31:27.329Z,52.8860
2022-08-19T01:31:36.480Z,52.9650
2022-08-19T01:31:47.643Z,52.7890
2022-08-19T01:31:58.851Z,52.7100
2022-08-19T01:32:10.046Z,52.6590
2022-08-19T01:32:33.850Z,52.9170
2022-08-19T01:32:43.965Z,53.0000
2022-08-19T01:32:55.261Z,52.7890
2022-08-19T01:33:06.371Z,52.6940
2022-08-19T01:33:17.412Z,52.6500
2022-08-19T01:33:28.482Z,52.6280
2022-08-19T01:33:39.640Z,52.6030
2022-08-19T01:33:50.846Z,52.6030
2022-08-19T01:34:02.062Z,52.6220
2022-08-19T01:34:13.242Z,52.6150
2022-08-19T01:34:24.294Z,52.6340
2022-08-19T01:34:35.362Z,52.6280
2022-08-19T01:34:46.412Z,52.6400
2022-08-19T01:34:57.512Z,52.6340
2022-08-19T01:35:08.602Z,52.6280
2022-08-19T01:35:19.648Z,52.6400
2022-08-19T01:35:30.692Z,52.6360
2022-08-19T01:35:41.756Z,52.6460
2022-08-19T01:35:52.852Z,52.6460
2022-08-19T01:36:03.955Z,52.6590
2022-08-19T01:36:15.593Z,52.7270
2022-08-19T01:36:26.711Z,52.7060
2022-08-19T01:36:37.883Z,52.7060
2022-08-19T01:36:49.088Z,52.7270
2022-08-19T01:37:00.276Z,52.7510
2022-08-19T01:37:11.490Z,52.7450
2022-08-19T01:37:24.935Z,52.7570
2022-08-19T01:37:38.402Z,53.0050
2022-08-19T01:37:49.564Z,52.8720
2022-08-19T01:38:00.774Z,52.8840
2022-08-19T01:38:11.826Z,52.8970
2022-08-19T01:38:23.550Z,52.9240
2022-08-19T01:38:35.388Z,52.9240
2022-08-19T01:38:52.343Z,53.1390
2022-08-19T01:39:03.499Z,53.0130
2022-08-19T01:39:14.563Z,52.8900
2022-08-19T01:39:25.629Z,52.8340
2022-08-19T01:39:36.717Z,52.8070
2022-08-19T01:39:47.844Z,52.8070
2022-08-19T01:39:58.987Z,52.8220
2022-08-19T01:40:10.152Z,52.8220
2022-08-19T01:40:21.236Z,52.8030
2022-08-19T01:40:32.285Z,52.8160
2022-08-19T01:40:43.351Z,52.8340
2022-08-19T01:40:54.378Z,52.8220
2022-08-19T01:41:10.902Z,52.8160
2022-08-19T01:41:22.378Z,53.1340
2022-08-19T01:41:33.485Z,53.0180
2022-08-19T01:41:44.564Z,52.9480
2022-08-19T01:41:55.658Z,52.9170
2022-08-19T01:42:06.884Z,52.8880
2022-08-19T01:42:17.949Z,52.8880
2022-08-19T01:42:30.600Z,52.8450
2022-08-19T01:42:41.771Z,52.9400
2022-08-19T01:42:53.122Z,52.8630
2022-08-19T01:43:04.263Z,52.8390
2022-08-19T01:43:15.339Z,52.8410
2022-08-19T01:43:26.397Z,52.8160
2022-08-19T01:43:37.469Z,52.8100
2022-08-19T01:44:10.398Z,53.1240
2022-08-19T01:44:17.413Z,53.2480
2022-08-19T01:44:28.330Z,53.2990
2022-08-19T01:44:39.379Z,53.1070
2022-08-19T01:44:50.450Z,52.9660
2022-08-19T01:45:01.503Z,52.9170
2022-08-19T01:45:12.567Z,52.8950
2022-08-19T01:45:23.659Z,52.8760
2022-08-19T01:45:34.738Z,52.8760
2022-08-19T01:45:45.789Z,52.8700
2022-08-19T01:45:56.849Z,52.8570
2022-08-19T01:46:07.915Z,52.8390
2022-08-19T01:46:22.092Z,52.8240
2022-08-19T01:46:36.011Z,53.0760
2022-08-19T01:46:47.178Z,52.9990
2022-08-19T01:46:58.384Z,52.8980
2022-08-19T01:47:09.579Z,52.8710
2022-08-19T01:47:20.779Z,52.8530
2022-08-19T01:47:31.820Z,52.8340
2022-08-19T01:47:42.859Z,52.8220
2022-08-19T01:48:02.323Z,53.0830
2022-08-19T01:48:13.915Z,53.1010
2022-08-19T01:48:24.968Z,52.9160
2022-08-19T01:48:36.036Z,52.8400
2022-08-19T01:48:47.098Z,52.7950
2022-08-19T01:48:58.143Z,52.7760
2022-08-19T01:49:09.259Z,52.7700
2022-08-19T01:49:20.458Z,52.7620
2022-08-19T01:49:31.677Z,52.7740
2022-08-19T01:49:42.860Z,52.7620
2022-08-19T01:49:53.917Z,52.7350
2022-08-19T01:50:04.982Z,52.7290
2022-08-19T01:50:16.139Z,52.7230
2022-08-19T01:50:27.338Z,52.7480
2022-08-19T01:50:38.379Z,52.7540
2022-08-19T01:50:49.436Z,52.7410
2022-08-19T01:51:00.609Z,52.7270
2022-08-19T01:51:11.836Z,52.7450
2022-08-19T01:51:23.020Z,52.7580
2022-08-19T01:51:39.923Z,52.7580
2022-08-19T01:51:51.204Z,53.0110
2022-08-19T01:52:02.379Z,52.9480
2022-08-19T01:52:13.579Z,52.8580
2022-08-19T01:52:24.779Z,52.8210
2022-08-19T01:52:35.979Z,52.8150
2022-08-19T01:52:47.215Z,52.8070
2022-08-19T01:53:06.909Z,53.0490
2022-08-19T01:53:19.196Z,53.1250
2022-08-19T01:53:33.817Z,52.9610
2022-08-19T01:53:45.146Z,53.0490
2022-08-19T01:53:56.982Z,52.9160
2022-08-19T01:54:08.155Z,52.8340
2022-08-19T01:54:27.277Z,52.8150
2022-08-19T01:54:36.316Z,53.1190
2022-08-19T01:54:47.517Z,53.0620
2022-08-19T01:54:58.591Z,52.9730
2022-08-19T01:55:09.688Z,52.9300
2022-08-19T01:55:20.779Z,52.9420
2022-08-19T01:55:31.979Z,52.9480
2022-08-19T01:55:43.180Z,52.9410
2022-08-19T01:55:54.235Z,52.9600
2022-08-19T01:56:05.309Z,52.9230
2022-08-19T01:56:16.404Z,52.9230
2022-08-19T01:56:27.473Z,52.9230
2022-08-19T01:56:38.510Z,52.9160
2022-08-19T01:56:49.712Z,52.9100
2022-08-19T01:57:02.221Z,52.9870
2022-08-19T01:57:13.275Z,52.9290
2022-08-19T01:57:24.319Z,52.9050
2022-08-19T01:57:35.498Z,52.9170
2022-08-19T01:57:46.546Z,52.9110
2022-08-19T01:57:57.578Z,52.9010
2022-08-19T01:58:08.650Z,52.8880
2022-08-19T01:58:19.729Z,52.8760
2022-08-19T01:58:30.769Z,52.8630
2022-08-19T01:58:41.836Z,52.8450
2022-08-19T01:58:52.957Z,52.8570
2022-08-19T01:59:04.128Z,52.9010
2022-08-19T01:59:15.218Z,52.9340
2022-08-19T01:59:26.327Z,52.9340
2022-08-19T01:59:37.386Z,52.9580
2022-08-19T01:59:48.449Z,52.9810
2022-08-19T01:59:59.498Z,52.9870
2022-08-19T02:00:10.557Z,52.9870
2022-08-19T02:00:21.629Z,53.0060
2022-08-19T02:00:32.767Z,53.0180
2022-08-19T02:00:43.967Z,53.0240
2022-08-19T02:00:55.010Z,53.0110
2022-08-19T02:01:06.084Z,53.0240
2022-08-19T02:01:17.244Z,53.0430
2022-08-19T02:01:28.339Z,53.0760
2022-08-19T02:01:42.664Z,53.2600
2022-08-19T02:01:53.825Z,53.1600
2022-08-19T02:02:04.972Z,53.1540
2022-08-19T02:02:16.022Z,53.1540
2022-08-19T02:02:27.079Z,53.1600
2022-08-19T02:02:38.128Z,53.1680
2022-08-19T02:02:49.225Z,53.1680
2022-08-19T02:03:00.299Z,53.1550
2022-08-19T02:03:11.379Z,53.1550
2022-08-19T02:03:22.446Z,53.1370
2022-08-19T02:03:33.576Z,53.1310
2022-08-19T02:03:44.648Z,53.1450
2022-08-19T02:03:56.935Z,53.1430
2022-08-19T02:04:09.140Z,53.2840
2022-08-19T02:04:20.295Z,53.1800
2022-08-19T02:04:31.336Z,53.1370
2022-08-19T02:04:42.377Z,53.1040
2022-08-19T02:04:53.437Z,53.1180
2022-08-19T02:05:04.498Z,53.1020
2022-08-19T02:05:15.648Z,53.0770
2022-08-19T02:05:26.849Z,53.0620
2022-08-19T02:05:38.047Z,53.0570
2022-08-19T02:05:49.268Z,53.0430
2022-08-19T02:06:00.449Z,53.0300
2022-08-19T02:06:11.501Z,53.0240
2022-08-19T02:06:22.557Z,53.0240
2022-08-19T02:06:38.248Z,53.3050
2022-08-19T02:06:49.419Z,53.1310
2022-08-19T02:07:00.476Z,53.0380
2022-08-19T02:07:11.612Z,53.0380
2022-08-19T02:07:22.699Z,53.0380
2022-08-19T02:07:33.913Z,53.0380
2022-08-19T02:07:45.095Z,52.9930
2022-08-19T02:07:56.129Z,52.9870
2022-08-19T02:08:07.207Z,52.9410
2022-08-19T02:08:18.368Z,52.9160
2022-08-19T02:08:29.578Z,52.9290
2022-08-19T02:08:40.655Z,52.9290
2022-08-19T02:08:51.718Z,52.9050
2022-08-19T02:09:05.417Z,53.0510
2022-08-19T02:09:16.607Z,52.9410
2022-08-19T02:09:27.808Z,52.9230
2022-08-19T02:09:39.007Z,52.8980
2022-08-19T02:09:50.207Z,52.8980
2022-08-19T02:10:01.789Z,52.8980
2022-08-19T02:10:16.659Z,53.1070
2022-08-19T02:10:28.017Z,53.0240
2022-08-19T02:10:39.169Z,52.9940
2022-08-19T02:10:50.371Z,52.9600
2022-08-19T02:11:01.418Z,52.9410
2022-08-19T02:11:12.456Z,52.8900
2022-08-19T02:11:23.658Z,52.8520
2022-08-19T02:11:34.849Z,52.9040
2022-08-19T02:11:45.888Z,52.9290
2022-08-19T02:11:56.929Z,52.9290
2022-08-19T02:12:08.127Z,52.9540
2022-08-19T02:12:19.337Z,52.9410
2022-08-19T02:12:30.388Z,52.9480
2022-08-19T02:12:42.407Z,52.9870
2022-08-19T02:12:53.884Z,52.9600
2022-08-19T02:13:05.137Z,52.9600
2022-08-19T02:13:16.956Z,53.0310
2022-08-19T02:13:33.888Z,53.2660
2022-08-19T02:13:44.948Z,53.1520
2022-08-19T02:13:55.977Z,53.0570
2022-08-19T02:14:07.168Z,53.0180
2022-08-19T02:14:18.207Z,53.0180
2022-08-19T02:14:29.248Z,53.0050
2022-08-19T02:14:40.448Z,53.0110
2022-08-19T02:14:51.498Z,53.0490
2022-08-19T02:15:02.547Z,53.0760
2022-08-19T02:15:13.729Z,53.0570
2022-08-19T02:15:24.837Z,53.0820
2022-08-19T02:15:35.918Z,53.0570
2022-08-19T02:15:46.981Z,53.0240
2022-08-19T02:15:58.014Z,53.0180
2022-08-19T02:16:09.088Z,53.0300
2022-08-19T02:16:20.156Z,53.0490
2022-08-19T02:16:31.243Z,53.0760
2022-08-19T02:16:42.288Z,53.0820
2022-08-19T02:16:53.328Z,53.1130
2022-08-19T02:17:04.448Z,53.1190
2022-08-19T02:17:15.497Z,53.1130
2022-08-19T02:17:26.598Z,53.1250
2022-08-19T02:17:37.676Z,53.0820
2022-08-19T02:17:48.734Z,53.1190
2022-08-19T02:17:59.816Z,53.1580
2022-08-19T02:18:11.010Z,53.1710
2022-08-19T02:18:22.208Z,53.1830
2022-08-19T02:18:39.168Z,53.4450
2022-08-19T02:18:50.228Z,53.3440
2022-08-19T02:19:01.258Z,53.2430
2022-08-19T02:19:12.302Z,53.2170
2022-08-19T02:19:23.369Z,53.1960
2022-08-19T02:19:34.498Z,53.2080
2022-08-19T02:19:45.537Z,53.2290
2022-08-19T02:19:56.579Z,53.2230
2022-08-19T02:20:07.619Z,53.2080
2022-08-19T02:20:18.657Z,53.2080
2022-08-19T02:20:29.857Z,53.2080
2022-08-19T02:20:41.059Z,53.2290